sensor_id;sensor_type;location;lat;lon;timestamp;temperature;humidity
53695;DHT22;39588;51.124;7.190;2023-08-30T00:00:38;14.80;99.90
53695;DHT22;39588;51.124;7.190;2023-08-30T00:03:04;14.70;99.90
53695;DHT22;39588;51.124;7.190;2023-08-30T00:05:31;14.60;99.90
53695;DHT22;39588;51.124;7.190;2023-08-30T00:07:57;14.60;99.90
53695;DHT22;39588;51.124;7.190;2023-08-30T00:10:22;14.60;99.90
53695;DHT22;39588;51.124;7.190;2023-08-30T00:12:48;14.50;99.90
53695;DHT22;39588;51.124;7.190;2023-08-30T00:20:07;14.50;99.90
53695;DHT22;39588;51.124;7.190;2023-08-30T00:22:34;14.50;99.90
53695;DHT22;39588;51.124;7.190;2023-08-30T00:24:59;14.50;99.90
53695;DHT22;39588;51.124;7.190;2023-08-30T00:27:26;14.40;99.90
53695;DHT22;39588;51.124;7.190;2023-08-30T00:29:52;14.40;99.90
53695;DHT22;39588;51.124;7.190;2023-08-30T00:32:17;14.40;99.90
53695;DHT22;39588;51.124;7.190;2023-08-30T00:34:43;14.30;99.90
53695;DHT22;39588;51.124;7.190;2023-08-30T00:39:37;14.30;99.90
53695;DHT22;39588;51.124;7.190;2023-08-30T00:42:04;14.40;99.90
53695;DHT22;39588;51.124;7.190;2023-08-30T00:44:31;14.30;99.90
53695;DHT22;39588;51.124;7.190;2023-08-30T00:46:57;14.40;99.90
53695;DHT22;39588;51.124;7.190;2023-08-30T00:49:23;14.40;99.90
53695;DHT22;39588;51.124;7.190;2023-08-30T00:51:49;14.50;99.90
53695;DHT22;39588;51.124;7.190;2023-08-30T00:56:42;14.60;99.90
53695;DHT22;39588;51.124;7.190;2023-08-30T00:59:08;14.60;99.90
53695;DHT22;39588;51.124;7.190;2023-08-30T01:01:34;14.50;99.90
53695;DHT22;39588;51.124;7.190;2023-08-30T01:04:00;14.50;99.90
53695;DHT22;39588;51.124;7.190;2023-08-30T01:08:52;14.30;99.90
53695;DHT22;39588;51.124;7.190;2023-08-30T01:11:39;14.30;99.90
53695;DHT22;39588;51.124;7.190;2023-08-30T01:14:11;14.30;99.90
53695;DHT22;39588;51.124;7.190;2023-08-30T01:16:38;14.30;99.90
53695;DHT22;39588;51.124;7.190;2023-08-30T01:21:52;14.30;99.90
53695;DHT22;39588;51.124;7.190;2023-08-30T01:25:14;14.40;99.90
53695;DHT22;39588;51.124;7.190;2023-08-30T01:27:34;14.30;99.90
53695;DHT22;39588;51.124;7.190;2023-08-30T01:30:02;14.20;99.90
53695;DHT22;39588;51.124;7.190;2023-08-30T01:32:29;14.20;99.90
53695;DHT22;39588;51.124;7.190;2023-08-30T01:34:56;14.20;99.90
53695;DHT22;39588;51.124;7.190;2023-08-30T01:39:49;14.10;99.90
53695;DHT22;39588;51.124;7.190;2023-08-30T01:42:15;14.10;99.90
53695;DHT22;39588;51.124;7.190;2023-08-30T01:44:42;14.10;99.90
53695;DHT22;39588;51.124;7.190;2023-08-30T01:47:10;14.10;99.90
53695;DHT22;39588;51.124;7.190;2023-08-30T01:49:36;14.10;99.90
53695;DHT22;39588;51.124;7.190;2023-08-30T01:52:06;14.10;99.90
53695;DHT22;39588;51.124;7.190;2023-08-30T01:54:32;14.10;99.90
53695;DHT22;39588;51.124;7.190;2023-08-30T01:56:58;14.10;99.90
53695;DHT22;39588;51.124;7.190;2023-08-30T01:59:24;14.10;99.90
53695;DHT22;39588;51.124;7.190;2023-08-30T02:01:51;14.10;99.90
53695;DHT22;39588;51.124;7.190;2023-08-30T02:06:50;14.20;99.90
53695;DHT22;39588;51.124;7.190;2023-08-30T02:09:34;14.30;99.90
53695;DHT22;39588;51.124;7.190;2023-08-30T02:12:05;14.30;99.90
53695;DHT22;39588;51.124;7.190;2023-08-30T02:14:32;14.30;99.90
53695;DHT22;39588;51.124;7.190;2023-08-30T02:16:58;14.40;99.90
53695;DHT22;39588;51.124;7.190;2023-08-30T02:19:24;14.40;99.90
53695;DHT22;39588;51.124;7.190;2023-08-30T02:21:50;14.40;99.90
53695;DHT22;39588;51.124;7.190;2023-08-30T02:24:16;14.40;99.90
53695;DHT22;39588;51.124;7.190;2023-08-30T02:29:07;14.30;99.90
53695;DHT22;39588;51.124;7.190;2023-08-30T02:31:33;14.30;99.90
53695;DHT22;39588;51.124;7.190;2023-08-30T02:33:59;14.30;99.90
53695;DHT22;39588;51.124;7.190;2023-08-30T02:41:18;14.30;99.90
53695;DHT22;39588;51.124;7.190;2023-08-30T02:43:43;14.30;99.90
53695;DHT22;39588;51.124;7.190;2023-08-30T02:48:35;14.30;99.90
53695;DHT22;39588;51.124;7.190;2023-08-30T02:51:00;14.20;99.90
53695;DHT22;39588;51.124;7.190;2023-08-30T02:53:26;14.10;99.90
53695;DHT22;39588;51.124;7.190;2023-08-30T02:55:52;14.00;99.90
53695;DHT22;39588;51.124;7.190;2023-08-30T03:08:05;13.80;99.90
53695;DHT22;39588;51.124;7.190;2023-08-30T03:12:57;13.80;99.90
53695;DHT22;39588;51.124;7.190;2023-08-30T03:22:41;13.60;99.90
53695;DHT22;39588;51.124;7.190;2023-08-30T03:25:07;13.50;99.90
53695;DHT22;39588;51.124;7.190;2023-08-30T03:27:34;13.50;99.90
53695;DHT22;39588;51.124;7.190;2023-08-30T03:30:01;13.50;99.90
53695;DHT22;39588;51.124;7.190;2023-08-30T03:32:27;13.40;99.90
53695;DHT22;39588;51.124;7.190;2023-08-30T03:34:53;13.40;99.90
53695;DHT22;39588;51.124;7.190;2023-08-30T03:37:18;13.40;99.90
53695;DHT22;39588;51.124;7.190;2023-08-30T03:39:44;13.30;99.90
53695;DHT22;39588;51.124;7.190;2023-08-30T03:44:37;13.30;99.90
53695;DHT22;39588;51.124;7.190;2023-08-30T03:47:03;13.30;99.90
53695;DHT22;39588;51.124;7.190;2023-08-30T03:49:28;13.30;99.90
53695;DHT22;39588;51.124;7.190;2023-08-30T03:51:55;13.30;99.90
53695;DHT22;39588;51.124;7.190;2023-08-30T04:11:23;13.20;99.90
53695;DHT22;39588;51.124;7.190;2023-08-30T04:23:34;13.10;99.90
53695;DHT22;39588;51.124;7.190;2023-08-30T04:25:59;13.10;99.90
53695;DHT22;39588;51.124;7.190;2023-08-30T04:28:25;13.10;99.90
53695;DHT22;39588;51.124;7.190;2023-08-30T04:30:55;13.00;99.90
53695;DHT22;39588;51.124;7.190;2023-08-30T04:33:21;13.00;99.90
53695;DHT22;39588;51.124;7.190;2023-08-30T04:35:54;13.00;99.90
53695;DHT22;39588;51.124;7.190;2023-08-30T04:38:20;13.00;99.90
53695;DHT22;39588;51.124;7.190;2023-08-30T04:40:47;13.00;99.90
53695;DHT22;39588;51.124;7.190;2023-08-30T04:43:13;13.00;99.90
53695;DHT22;39588;51.124;7.190;2023-08-30T04:45:38;13.00;99.90
53695;DHT22;39588;51.124;7.190;2023-08-30T04:48:04;13.00;99.90
53695;DHT22;39588;51.124;7.190;2023-08-30T04:50:30;12.90;99.90
53695;DHT22;39588;51.124;7.190;2023-08-30T04:52:57;13.00;99.90
53695;DHT22;39588;51.124;7.190;2023-08-30T04:55:27;12.90;99.90
53695;DHT22;39588;51.124;7.190;2023-08-30T04:57:53;13.00;99.90
53695;DHT22;39588;51.124;7.190;2023-08-30T05:00:19;13.00;99.90
53695;DHT22;39588;51.124;7.190;2023-08-30T05:02:45;13.00;99.90
53695;DHT22;39588;51.124;7.190;2023-08-30T05:05:12;13.00;99.90
53695;DHT22;39588;51.124;7.190;2023-08-30T05:07:38;13.00;99.90
53695;DHT22;39588;51.124;7.190;2023-08-30T05:10:05;13.10;99.90
53695;DHT22;39588;51.124;7.190;2023-08-30T05:31:59;13.20;99.90
53695;DHT22;39588;51.124;7.190;2023-08-30T05:34:24;13.20;99.90
53695;DHT22;39588;51.124;7.190;2023-08-30T05:39:18;13.20;99.90
53695;DHT22;39588;51.124;7.190;2023-08-30T05:41:44;13.20;99.90
53695;DHT22;39588;51.124;7.190;2023-08-30T05:44:10;13.20;99.90
53695;DHT22;39588;51.124;7.190;2023-08-30T05:46:36;13.30;99.90
53695;DHT22;39588;51.124;7.190;2023-08-30T05:51:38;13.30;99.90
53695;DHT22;39588;51.124;7.190;2023-08-30T05:54:04;13.30;99.90
53695;DHT22;39588;51.124;7.190;2023-08-30T06:01:21;13.30;99.90
53695;DHT22;39588;51.124;7.190;2023-08-30T06:03:47;13.30;99.90
53695;DHT22;39588;51.124;7.190;2023-08-30T06:06:13;13.30;99.90
53695;DHT22;39588;51.124;7.190;2023-08-30T06:08:39;13.30;99.90
53695;DHT22;39588;51.124;7.190;2023-08-30T06:11:04;13.30;99.90
53695;DHT22;39588;51.124;7.190;2023-08-30T06:18:22;13.40;99.90
53695;DHT22;39588;51.124;7.190;2023-08-30T06:20:48;13.50;99.90
53695;DHT22;39588;51.124;7.190;2023-08-30T06:23:17;13.50;99.90
53695;DHT22;39588;51.124;7.190;2023-08-30T06:25:43;13.60;99.90
53695;DHT22;39588;51.124;7.190;2023-08-30T06:40:20;13.90;99.90
53695;DHT22;39588;51.124;7.190;2023-08-30T06:42:46;14.00;99.90
53695;DHT22;39588;51.124;7.190;2023-08-30T06:45:12;14.10;99.90
53695;DHT22;39588;51.124;7.190;2023-08-30T06:50:04;14.30;99.90
53695;DHT22;39588;51.124;7.190;2023-08-30T07:07:05;14.50;99.90
53695;DHT22;39588;51.124;7.190;2023-08-30T07:09:31;14.60;99.90
53695;DHT22;39588;51.124;7.190;2023-08-30T07:11:58;14.70;99.90
53695;DHT22;39588;51.124;7.190;2023-08-30T07:16:51;14.90;99.90
53695;DHT22;39588;51.124;7.190;2023-08-30T07:19:17;15.10;99.90
53695;DHT22;39588;51.124;7.190;2023-08-30T07:21:43;15.10;99.90
53695;DHT22;39588;51.124;7.190;2023-08-30T07:26:35;15.40;99.90
53695;DHT22;39588;51.124;7.190;2023-08-30T07:29:01;15.30;99.90
53695;DHT22;39588;51.124;7.190;2023-08-30T07:38:44;15.80;99.90
53695;DHT22;39588;51.124;7.190;2023-08-30T07:41:10;15.90;99.90
53695;DHT22;39588;51.124;7.190;2023-08-30T07:46:02;16.00;99.90
53695;DHT22;39588;51.124;7.190;2023-08-30T07:48:28;16.00;99.90
53695;DHT22;39588;51.124;7.190;2023-08-30T07:50:53;16.10;99.90
53695;DHT22;39588;51.124;7.190;2023-08-30T07:53:19;16.30;99.90
53695;DHT22;39588;51.124;7.190;2023-08-30T07:55:51;16.40;99.90
53695;DHT22;39588;51.124;7.190;2023-08-30T07:58:19;16.60;99.90
53695;DHT22;39588;51.124;7.190;2023-08-30T08:00:45;16.60;99.90
53695;DHT22;39588;51.124;7.190;2023-08-30T08:03:10;16.60;99.90
53695;DHT22;39588;51.124;7.190;2023-08-30T08:05:36;16.60;99.90
53695;DHT22;39588;51.124;7.190;2023-08-30T08:08:02;16.70;99.90
53695;DHT22;39588;51.124;7.190;2023-08-30T08:10:32;16.70;99.90
53695;DHT22;39588;51.124;7.190;2023-08-30T08:13:00;16.80;99.90
53695;DHT22;39588;51.124;7.190;2023-08-30T08:15:26;16.70;99.90
53695;DHT22;39588;51.124;7.190;2023-08-30T08:17:51;16.80;99.90
53695;DHT22;39588;51.124;7.190;2023-08-30T08:20:17;16.90;99.90
53695;DHT22;39588;51.124;7.190;2023-08-30T08:22:43;17.00;99.90
53695;DHT22;39588;51.124;7.190;2023-08-30T08:25:08;17.10;99.90
53695;DHT22;39588;51.124;7.190;2023-08-30T08:27:36;17.30;99.90
53695;DHT22;39588;51.124;7.190;2023-08-30T08:30:03;17.50;99.90
53695;DHT22;39588;51.124;7.190;2023-08-30T08:32:29;17.70;99.70
53695;DHT22;39588;51.124;7.190;2023-08-30T08:34:56;17.80;99.50
53695;DHT22;39588;51.124;7.190;2023-08-30T08:37:22;17.90;99.20
53695;DHT22;39588;51.124;7.190;2023-08-30T08:39:47;18.00;98.70
53695;DHT22;39588;51.124;7.190;2023-08-30T08:42:19;18.10;98.30
53695;DHT22;39588;51.124;7.190;2023-08-30T08:44:50;18.00;98.70
53695;DHT22;39588;51.124;7.190;2023-08-30T08:47:17;18.10;98.30
53695;DHT22;39588;51.124;7.190;2023-08-30T08:49:44;18.10;98.50
53695;DHT22;39588;51.124;7.190;2023-08-30T08:54:40;18.80;98.50
53695;DHT22;39588;51.124;7.190;2023-08-30T08:57:09;19.00;97.60
53695;DHT22;39588;51.124;7.190;2023-08-30T09:02:02;19.40;97.40
53695;DHT22;39588;51.124;7.190;2023-08-30T09:04:32;19.40;97.60
53695;DHT22;39588;51.124;7.190;2023-08-30T09:07:01;19.60;97.80
53695;DHT22;39588;51.124;7.190;2023-08-30T09:09:27;19.70;97.30
53695;DHT22;39588;51.124;7.190;2023-08-30T09:14:20;19.60;97.50
53695;DHT22;39588;51.124;7.190;2023-08-30T09:16:59;19.50;97.40
53695;DHT22;39588;51.124;7.190;2023-08-30T09:19:29;19.30;97.20
53695;DHT22;39588;51.124;7.190;2023-08-30T09:21:59;19.30;97.60
53695;DHT22;39588;51.124;7.190;2023-08-30T09:24:25;19.30;97.40
53695;DHT22;39588;51.124;7.190;2023-08-30T09:26:52;19.40;97.00
53695;DHT22;39588;51.124;7.190;2023-08-30T09:29:19;19.50;97.20
53695;DHT22;39588;51.124;7.190;2023-08-30T09:31:46;19.50;97.30
53695;DHT22;39588;51.124;7.190;2023-08-30T09:34:12;19.70;97.50
53695;DHT22;39588;51.124;7.190;2023-08-30T09:36:39;19.90;97.80
53695;DHT22;39588;51.124;7.190;2023-08-30T09:39:09;20.00;96.80
53695;DHT22;39588;51.124;7.190;2023-08-30T09:41:42;19.80;96.60
53695;DHT22;39588;51.124;7.190;2023-08-30T09:44:19;19.40;95.80
53695;DHT22;39588;51.124;7.190;2023-08-30T09:46:50;18.90;96.20
53695;DHT22;39588;51.124;7.190;2023-08-30T09:49:19;18.60;96.70
53695;DHT22;39588;51.124;7.190;2023-08-30T09:51:47;18.40;96.90
53695;DHT22;39588;51.124;7.190;2023-08-30T09:54:26;18.50;97.30
53695;DHT22;39588;51.124;7.190;2023-08-30T09:56:54;18.80;97.10
53695;DHT22;39588;51.124;7.190;2023-08-30T09:59:22;19.10;97.20
53695;DHT22;39588;51.124;7.190;2023-08-30T10:01:48;19.30;96.70
53695;DHT22;39588;51.124;7.190;2023-08-30T10:04:15;19.30;97.00
53695;DHT22;39588;51.124;7.190;2023-08-30T10:09:08;19.10;96.30
53695;DHT22;39588;51.124;7.190;2023-08-30T10:11:35;18.80;96.60
53695;DHT22;39588;51.124;7.190;2023-08-30T10:14:05;18.90;96.90
53695;DHT22;39588;51.124;7.190;2023-08-30T10:16:43;18.80;97.50
53695;DHT22;39588;51.124;7.190;2023-08-30T10:19:26;18.70;98.10
53695;DHT22;39588;51.124;7.190;2023-08-30T10:24:32;18.60;98.40
53695;DHT22;39588;51.124;7.190;2023-08-30T10:27:03;18.50;98.70
53695;DHT22;39588;51.124;7.190;2023-08-30T10:29:32;18.50;98.80
53695;DHT22;39588;51.124;7.190;2023-08-30T10:32:05;18.70;98.90
53695;DHT22;39588;51.124;7.190;2023-08-30T10:34:32;18.80;98.80
53695;DHT22;39588;51.124;7.190;2023-08-30T10:37:03;18.90;99.10
53695;DHT22;39588;51.124;7.190;2023-08-30T10:39:38;19.00;98.80
53695;DHT22;39588;51.124;7.190;2023-08-30T10:42:13;19.10;98.90
53695;DHT22;39588;51.124;7.190;2023-08-30T10:44:48;19.10;99.00
53695;DHT22;39588;51.124;7.190;2023-08-30T10:47:24;19.10;98.90
53695;DHT22;39588;51.124;7.190;2023-08-30T10:49:57;19.20;98.90
53695;DHT22;39588;51.124;7.190;2023-08-30T10:52:24;19.20;98.90
53695;DHT22;39588;51.124;7.190;2023-08-30T10:54:50;19.00;98.80
53695;DHT22;39588;51.124;7.190;2023-08-30T10:57:24;19.00;98.80
53695;DHT22;39588;51.124;7.190;2023-08-30T11:00:17;19.00;98.90
53695;DHT22;39588;51.124;7.190;2023-08-30T11:02:45;18.80;99.10
53695;DHT22;39588;51.124;7.190;2023-08-30T11:05:15;18.60;98.90
53695;DHT22;39588;51.124;7.190;2023-08-30T11:07:45;18.40;99.20
53695;DHT22;39588;51.124;7.190;2023-08-30T11:10:12;18.10;99.60
53695;DHT22;39588;51.124;7.190;2023-08-30T11:12:40;17.70;99.90
53695;DHT22;39588;51.124;7.190;2023-08-30T11:15:07;17.40;99.90
53695;DHT22;39588;51.124;7.190;2023-08-30T11:17:34;17.40;99.90
53695;DHT22;39588;51.124;7.190;2023-08-30T11:20:08;17.40;99.90
53695;DHT22;39588;51.124;7.190;2023-08-30T11:22:55;17.30;99.90
53695;DHT22;39588;51.124;7.190;2023-08-30T11:30:13;17.20;99.90
53695;DHT22;39588;51.124;7.190;2023-08-30T11:32:41;17.20;99.90
53695;DHT22;39588;51.124;7.190;2023-08-30T11:35:10;17.10;99.90
53695;DHT22;39588;51.124;7.190;2023-08-30T11:37:36;16.80;99.90
53695;DHT22;39588;51.124;7.190;2023-08-30T11:40:03;16.40;99.90
53695;DHT22;39588;51.124;7.190;2023-08-30T11:42:31;16.10;99.90
53695;DHT22;39588;51.124;7.190;2023-08-30T11:44:58;15.80;99.90
53695;DHT22;39588;51.124;7.190;2023-08-30T11:47:25;15.60;99.90
53695;DHT22;39588;51.124;7.190;2023-08-30T11:49:55;15.60;99.90
53695;DHT22;39588;51.124;7.190;2023-08-30T11:52:23;15.70;99.90
53695;DHT22;39588;51.124;7.190;2023-08-30T11:54:49;15.70;99.90
53695;DHT22;39588;51.124;7.190;2023-08-30T11:57:15;15.70;99.90
53695;DHT22;39588;51.124;7.190;2023-08-30T11:59:40;15.70;99.90
53695;DHT22;39588;51.124;7.190;2023-08-30T12:02:11;15.70;99.90
53695;DHT22;39588;51.124;7.190;2023-08-30T12:04:41;15.70;99.90
53695;DHT22;39588;51.124;7.190;2023-08-30T12:07:07;15.80;99.90
53695;DHT22;39588;51.124;7.190;2023-08-30T12:09:33;15.80;99.90
53695;DHT22;39588;51.124;7.190;2023-08-30T12:12:12;15.90;99.90
53695;DHT22;39588;51.124;7.190;2023-08-30T12:14:38;15.90;99.90
53695;DHT22;39588;51.124;7.190;2023-08-30T12:17:04;15.80;99.90
53695;DHT22;39588;51.124;7.190;2023-08-30T12:19:31;15.90;99.90
53695;DHT22;39588;51.124;7.190;2023-08-30T12:22:06;15.90;99.90
53695;DHT22;39588;51.124;7.190;2023-08-30T12:24:45;16.00;99.90
53695;DHT22;39588;51.124;7.190;2023-08-30T12:27:11;16.00;99.90
53695;DHT22;39588;51.124;7.190;2023-08-30T12:32:03;16.00;99.90
53695;DHT22;39588;51.124;7.190;2023-08-30T12:36:55;15.90;99.90
53695;DHT22;39588;51.124;7.190;2023-08-30T12:39:21;16.00;99.90
53695;DHT22;39588;51.124;7.190;2023-08-30T12:41:46;16.10;99.90
53695;DHT22;39588;51.124;7.190;2023-08-30T12:44:12;16.20;99.90
53695;DHT22;39588;51.124;7.190;2023-08-30T12:49:04;16.20;99.90
53695;DHT22;39588;51.124;7.190;2023-08-30T12:53:56;16.10;99.90
53695;DHT22;39588;51.124;7.190;2023-08-30T13:08:32;15.80;99.90
53695;DHT22;39588;51.124;7.190;2023-08-30T13:10:59;15.70;99.90
53695;DHT22;39588;51.124;7.190;2023-08-30T13:13:25;15.60;99.90
53695;DHT22;39588;51.124;7.190;2023-08-30T13:15:51;15.50;99.90
53695;DHT22;39588;51.124;7.190;2023-08-30T13:18:16;15.40;99.90
53695;DHT22;39588;51.124;7.190;2023-08-30T13:20:43;15.30;99.90
53695;DHT22;39588;51.124;7.190;2023-08-30T13:23:09;15.30;99.90
53695;DHT22;39588;51.124;7.190;2023-08-30T13:25:41;15.30;99.90
53695;DHT22;39588;51.124;7.190;2023-08-30T13:28:07;15.30;99.90
53695;DHT22;39588;51.124;7.190;2023-08-30T13:30:33;15.30;99.90
53695;DHT22;39588;51.124;7.190;2023-08-30T13:32:59;15.30;99.90
53695;DHT22;39588;51.124;7.190;2023-08-30T13:45:09;15.50;99.90
53695;DHT22;39588;51.124;7.190;2023-08-30T13:47:35;15.40;99.90
53695;DHT22;39588;51.124;7.190;2023-08-30T13:50:01;15.50;99.90
53695;DHT22;39588;51.124;7.190;2023-08-30T13:52:27;15.50;99.90
53695;DHT22;39588;51.124;7.190;2023-08-30T13:54:54;15.70;99.90
53695;DHT22;39588;51.124;7.190;2023-08-30T13:57:20;15.90;99.90
53695;DHT22;39588;51.124;7.190;2023-08-30T13:59:46;16.10;99.90
53695;DHT22;39588;51.124;7.190;2023-08-30T14:04:38;16.90;99.90
53695;DHT22;39588;51.124;7.190;2023-08-30T14:07:03;17.20;99.90
53695;DHT22;39588;51.124;7.190;2023-08-30T14:09:29;17.30;99.90
53695;DHT22;39588;51.124;7.190;2023-08-30T14:11:55;17.20;99.90
53695;DHT22;39588;51.124;7.190;2023-08-30T14:14:21;17.10;99.90
53695;DHT22;39588;51.124;7.190;2023-08-30T14:16:47;17.00;99.90
53695;DHT22;39588;51.124;7.190;2023-08-30T14:19:14;16.80;99.90
53695;DHT22;39588;51.124;7.190;2023-08-30T14:21:40;16.70;99.90
53695;DHT22;39588;51.124;7.190;2023-08-30T14:24:06;16.50;99.90
53695;DHT22;39588;51.124;7.190;2023-08-30T14:26:31;16.40;99.90
53695;DHT22;39588;51.124;7.190;2023-08-30T14:28:57;16.20;99.90
53695;DHT22;39588;51.124;7.190;2023-08-30T14:31:23;16.10;99.90
53695;DHT22;39588;51.124;7.190;2023-08-30T14:33:49;16.00;99.90
53695;DHT22;39588;51.124;7.190;2023-08-30T14:36:15;16.00;99.90
53695;DHT22;39588;51.124;7.190;2023-08-30T14:38:41;15.90;99.90
53695;DHT22;39588;51.124;7.190;2023-08-30T14:41:07;15.90;99.90
53695;DHT22;39588;51.124;7.190;2023-08-30T14:43:33;15.90;99.90
53695;DHT22;39588;51.124;7.190;2023-08-30T14:46:03;15.70;99.90
53695;DHT22;39588;51.124;7.190;2023-08-30T14:48:29;15.50;99.90
53695;DHT22;39588;51.124;7.190;2023-08-30T14:50:57;15.50;99.90
53695;DHT22;39588;51.124;7.190;2023-08-30T14:53:23;15.40;99.90
53695;DHT22;39588;51.124;7.190;2023-08-30T14:55:49;15.30;99.90
53695;DHT22;39588;51.124;7.190;2023-08-30T14:58:15;15.30;99.90
53695;DHT22;39588;51.124;7.190;2023-08-30T15:00:40;15.20;99.90
53695;DHT22;39588;51.124;7.190;2023-08-30T15:03:06;15.10;99.90
53695;DHT22;39588;51.124;7.190;2023-08-30T15:07:58;14.80;99.90
53695;DHT22;39588;51.124;7.190;2023-08-30T15:12:50;14.80;99.90
53695;DHT22;39588;51.124;7.190;2023-08-30T15:17:43;14.80;99.90
53695;DHT22;39588;51.124;7.190;2023-08-30T15:20:09;15.00;99.90
53695;DHT22;39588;51.124;7.190;2023-08-30T15:22:35;15.10;99.90
53695;DHT22;39588;51.124;7.190;2023-08-30T15:25:01;15.20;99.90
53695;DHT22;39588;51.124;7.190;2023-08-30T15:27:33;15.30;99.90
53695;DHT22;39588;51.124;7.190;2023-08-30T15:29:58;15.40;99.90
53695;DHT22;39588;51.124;7.190;2023-08-30T15:37:17;15.40;99.90
53695;DHT22;39588;51.124;7.190;2023-08-30T15:42:08;16.00;99.90
53695;DHT22;39588;51.124;7.190;2023-08-30T15:47:00;16.70;99.90
53695;DHT22;39588;51.124;7.190;2023-08-30T15:49:25;16.90;99.90
53695;DHT22;39588;51.124;7.190;2023-08-30T15:51:51;17.00;99.90
53695;DHT22;39588;51.124;7.190;2023-08-30T15:59:12;17.00;99.90
53695;DHT22;39588;51.124;7.190;2023-08-30T16:01:38;17.10;99.90
53695;DHT22;39588;51.124;7.190;2023-08-30T16:04:04;17.10;99.90
53695;DHT22;39588;51.124;7.190;2023-08-30T16:06:30;17.00;99.90
53695;DHT22;39588;51.124;7.190;2023-08-30T16:08:56;16.80;99.90
53695;DHT22;39588;51.124;7.190;2023-08-30T16:16:14;16.40;99.90
53695;DHT22;39588;51.124;7.190;2023-08-30T16:21:05;16.80;99.90
53695;DHT22;39588;51.124;7.190;2023-08-30T16:23:31;16.90;99.90
53695;DHT22;39588;51.124;7.190;2023-08-30T16:25:58;16.80;99.90
53695;DHT22;39588;51.124;7.190;2023-08-30T16:35:44;16.60;99.90
53695;DHT22;39588;51.124;7.190;2023-08-30T16:38:11;16.60;99.90
53695;DHT22;39588;51.124;7.190;2023-08-30T16:40:37;16.60;99.90
53695;DHT22;39588;51.124;7.190;2023-08-30T16:43:03;18.10;99.90
53695;DHT22;39588;51.124;7.190;2023-08-30T17:02:31;16.50;99.90
53695;DHT22;39588;51.124;7.190;2023-08-30T17:07:23;16.40;99.90
53695;DHT22;39588;51.124;7.190;2023-08-30T17:09:48;16.30;99.90
53695;DHT22;39588;51.124;7.190;2023-08-30T17:12:14;16.30;99.90
53695;DHT22;39588;51.124;7.190;2023-08-30T17:17:05;16.20;99.90
53695;DHT22;39588;51.124;7.190;2023-08-30T17:21:57;16.10;99.90
53695;DHT22;39588;51.124;7.190;2023-08-30T17:24:23;16.10;99.90
53695;DHT22;39588;51.124;7.190;2023-08-30T17:26:48;16.00;99.90
53695;DHT22;39588;51.124;7.190;2023-08-30T17:31:41;15.80;99.90
53695;DHT22;39588;51.124;7.190;2023-08-30T17:34:06;15.80;99.90
53695;DHT22;39588;51.124;7.190;2023-08-30T17:36:32;15.70;99.90
53695;DHT22;39588;51.124;7.190;2023-08-30T17:46:16;15.70;99.90
53695;DHT22;39588;51.124;7.190;2023-08-30T17:48:41;15.70;99.90
53695;DHT22;39588;51.124;7.190;2023-08-30T17:51:09;15.70;99.90
53695;DHT22;39588;51.124;7.190;2023-08-30T17:53:36;15.70;99.90
53695;DHT22;39588;51.124;7.190;2023-08-30T17:58:32;15.50;99.90
53695;DHT22;39588;51.124;7.190;2023-08-30T18:00:58;15.40;99.90
53695;DHT22;39588;51.124;7.190;2023-08-30T18:03:25;15.40;99.90
53695;DHT22;39588;51.124;7.190;2023-08-30T18:06:03;15.30;99.90
53695;DHT22;39588;51.124;7.190;2023-08-30T18:10:56;15.00;99.90
53695;DHT22;39588;51.124;7.190;2023-08-30T18:13:22;14.90;99.90
53695;DHT22;39588;51.124;7.190;2023-08-30T18:15:47;14.80;99.90
53695;DHT22;39588;51.124;7.190;2023-08-30T18:18:13;14.70;99.90
53695;DHT22;39588;51.124;7.190;2023-08-30T18:20:39;14.70;99.90
53695;DHT22;39588;51.124;7.190;2023-08-30T18:23:04;14.50;99.90
53695;DHT22;39588;51.124;7.190;2023-08-30T18:27:56;14.40;99.90
53695;DHT22;39588;51.124;7.190;2023-08-30T18:30:22;14.40;99.90
53695;DHT22;39588;51.124;7.190;2023-08-30T18:32:48;14.30;99.90
53695;DHT22;39588;51.124;7.190;2023-08-30T18:37:40;14.20;99.90
53695;DHT22;39588;51.124;7.190;2023-08-30T18:40:07;14.20;99.90
53695;DHT22;39588;51.124;7.190;2023-08-30T18:47:33;14.00;99.90
53695;DHT22;39588;51.124;7.190;2023-08-30T18:49:59;14.00;99.90
53695;DHT22;39588;51.124;7.190;2023-08-30T18:52:24;14.00;99.90
53695;DHT22;39588;51.124;7.190;2023-08-30T18:57:18;14.00;99.90
53695;DHT22;39588;51.124;7.190;2023-08-30T19:07:04;14.00;99.90
53695;DHT22;39588;51.124;7.190;2023-08-30T19:09:30;14.10;99.90
53695;DHT22;39588;51.124;7.190;2023-08-30T19:16:50;14.10;99.90
53695;DHT22;39588;51.124;7.190;2023-08-30T19:19:16;14.10;99.90
53695;DHT22;39588;51.124;7.190;2023-08-30T19:21:42;14.00;99.90
53695;DHT22;39588;51.124;7.190;2023-08-30T19:29:00;13.90;99.90
53695;DHT22;39588;51.124;7.190;2023-08-30T19:31:26;13.90;99.90
53695;DHT22;39588;51.124;7.190;2023-08-30T19:38:47;13.80;99.90
53695;DHT22;39588;51.124;7.190;2023-08-30T19:41:12;13.80;99.90
53695;DHT22;39588;51.124;7.190;2023-08-30T19:43:39;13.80;99.90
53695;DHT22;39588;51.124;7.190;2023-08-30T19:46:05;13.70;99.90
53695;DHT22;39588;51.124;7.190;2023-08-30T19:48:32;13.70;99.90
53695;DHT22;39588;51.124;7.190;2023-08-30T19:50:58;13.70;99.90
53695;DHT22;39588;51.124;7.190;2023-08-30T19:53:24;13.70;99.90
53695;DHT22;39588;51.124;7.190;2023-08-30T19:55:51;13.60;99.90
53695;DHT22;39588;51.124;7.190;2023-08-30T19:58:20;13.60;99.90
53695;DHT22;39588;51.124;7.190;2023-08-30T20:00:49;13.60;99.90
53695;DHT22;39588;51.124;7.190;2023-08-30T20:03:15;13.70;99.90
53695;DHT22;39588;51.124;7.190;2023-08-30T20:05:48;13.70;99.90
53695;DHT22;39588;51.124;7.190;2023-08-30T20:08:15;13.60;99.90
53695;DHT22;39588;51.124;7.190;2023-08-30T20:10:41;13.50;99.90
53695;DHT22;39588;51.124;7.190;2023-08-30T20:13:07;13.50;99.90
53695;DHT22;39588;51.124;7.190;2023-08-30T20:18:00;13.40;99.90
53695;DHT22;39588;51.124;7.190;2023-08-30T20:20:26;13.40;99.90
53695;DHT22;39588;51.124;7.190;2023-08-30T20:22:51;13.40;99.90
53695;DHT22;39588;51.124;7.190;2023-08-30T20:27:44;13.40;99.90
53695;DHT22;39588;51.124;7.190;2023-08-30T20:30:10;13.30;99.90
53695;DHT22;39588;51.124;7.190;2023-08-30T20:32:36;13.30;99.90
53695;DHT22;39588;51.124;7.190;2023-08-30T20:35:01;13.30;99.90
53695;DHT22;39588;51.124;7.190;2023-08-30T20:37:28;13.30;99.90
53695;DHT22;39588;51.124;7.190;2023-08-30T20:42:24;13.40;99.90
53695;DHT22;39588;51.124;7.190;2023-08-30T20:44:50;13.40;99.90
53695;DHT22;39588;51.124;7.190;2023-08-30T20:52:09;13.20;99.90
53695;DHT22;39588;51.124;7.190;2023-08-30T20:54:35;13.10;99.90
53695;DHT22;39588;51.124;7.190;2023-08-30T20:57:16;13.10;99.90
53695;DHT22;39588;51.124;7.190;2023-08-30T20:59:42;13.00;99.90